Time;durP1;ratioP1;P1;durP2;ratioP2;P2;SDS_P1;SDS_P2;PMS_P1;PMS_P2;Temp;Humidity;BMP_temperature;BMP_pressure;BME280_temperature;BME280_humidity;BME280_pressure;Samples;Min_cycle;Max_cycle;Signal;HPM_P1;HPM_P2
2022/03/04 00:00:07;;;;;;;;;65.00;53.00;;;;;;;;4988786;28;28400;-82
2022/03/04 00:02:32;;;;;;;;;62.40;52.20;;;;;;;;4988978;28;28583;-83
2022/03/04 00:04:57;;;;;;;;;63.33;50.33;;;;;;;;4988473;28;28422;-83
2022/03/04 00:07:22;;;;;;;;;65.67;55.00;;;;;;;;4987721;28;28723;-82
2022/03/04 00:09:48;;;;;;;;;63.25;54.50;;;;;;;;4988204;28;28409;-82
2022/03/04 00:12:13;;;;;;;;;64.67;50.33;;;;;;;;4988780;28;28509;-82
2022/03/04 00:14:39;;;;;;;;;60.75;48.00;;;;;;;;4988884;28;29147;-82
2022/03/04 00:17:04;;;;;;;;;61.75;49.00;;;;;;;;4988714;28;28504;-83
2022/03/04 00:19:29;;;;;;;;;62.75;51.75;;;;;;;;4987728;28;28461;-83
2022/03/04 00:21:54;;;;;;;;;64.00;52.33;;;;;;;;4988824;28;28797;-82
2022/03/04 00:24:21;;;;;;;;;57.67;49.67;;;;;;;;4988738;28;28418;-82
2022/03/04 00:26:47;;;;;;;;;55.75;49.00;;;;;;;;4988198;28;28325;-80
2022/03/04 00:29:12;;;;;;;;;59.75;50.75;;;;;;;;4987622;28;28242;-82
2022/03/04 00:31:38;;;;;;;;;69.00;54.80;;;;;;;;4988218;28;28560;-82
2022/03/04 00:34:06;;;;;;;;;65.00;51.25;;;;;;;;4985877;28;30023;-83
2022/03/04 00:36:32;;;;;;;;;57.00;47.50;;;;;;;;4988688;28;28414;-82
2022/03/04 00:38:57;;;;;;;;;61.67;49.67;;;;;;;;4988640;28;28655;-83
2022/03/04 00:41:23;;;;;;;;;63.00;52.50;;;;;;;;4988878;28;28371;-83
2022/03/04 00:43:49;;;;;;;;;63.75;49.00;;;;;;;;4988545;28;28578;-83
2022/03/04 00:46:14;;;;;;;;;58.75;49.50;;;;;;;;4988037;28;28532;-85
2022/03/04 00:48:40;;;;;;;;;63.00;52.75;;;;;;;;4988314;28;28357;-82
2022/03/04 00:51:05;;;;;;;;;59.40;50.80;;;;;;;;4987892;28;28338;-82
2022/03/04 00:53:30;;;;;;;;;59.67;50.00;;;;;;;;4988483;28;28513;-82
2022/03/04 00:55:59;;;;;;;;;64.67;50.33;;;;;;;;4988553;28;28908;-82
2022/03/04 00:58:24;;;;;;;;;59.00;49.50;;;;;;;;4988183;28;28325;-82
2022/03/04 01:00:49;;;;;;;;;62.25;52.50;;;;;;;;4988715;28;28239;-82
2022/03/04 01:03:15;;;;;;;;;64.67;52.00;;;;;;;;4987838;28;29568;-82
2022/03/04 01:05:40;;;;;;;;;65.00;51.50;;;;;;;;4988032;28;28246;-82
2022/03/04 01:08:05;;;;;;;;;56.75;46.50;;;;;;;;4988105;28;27918;-82
2022/03/04 01:10:31;;;;;;;;;62.25;51.25;;;;;;;;4988287;28;28577;-82
2022/03/04 01:12:56;;;;;;;;;69.00;53.00;;;;;;;;4988203;28;28725;-82
2022/03/04 01:15:21;;;;;;;;;62.00;50.33;;;;;;;;4988011;28;28475;-82
2022/03/04 01:17:46;;;;;;;;;54.50;47.00;;;;;;;;4988779;28;28449;-80
2022/03/04 01:20:12;;;;;;;;;57.25;49.50;;;;;;;;4991298;28;28410;-80
2022/03/04 01:22:37;;;;;;;;;59.75;51.00;;;;;;;;4991485;28;28744;-80
2022/03/04 01:25:03;;;;;;;;;58.50;51.00;;;;;;;;4991086;28;28728;-80
2022/03/04 01:27:28;;;;;;;;;61.75;50.50;;;;;;;;4991265;28;28417;-80
2022/03/04 01:29:54;;;;;;;;;53.75;45.50;;;;;;;;4991448;28;28428;-81
2022/03/04 01:32:19;;;;;;;;;64.00;52.25;;;;;;;;4990679;28;28461;-81
2022/03/04 01:34:44;;;;;;;;;63.67;48.67;;;;;;;;4991031;28;28390;-81
2022/03/04 01:37:10;;;;;;;;;53.67;43.67;;;;;;;;4977657;28;28548;-81
2022/03/04 01:39:35;;;;;;;;;54.00;45.50;;;;;;;;4987950;28;28496;-81
2022/03/04 01:42:01;;;;;;;;;56.80;44.80;;;;;;;;4990964;28;28571;-80
2022/03/04 01:44:26;;;;;;;;;62.33;50.67;;;;;;;;4991035;28;28450;-81
2022/03/04 01:46:51;;;;;;;;;57.33;45.00;;;;;;;;4990978;28;28279;-80
2022/03/04 01:49:17;;;;;;;;;58.50;48.00;;;;;;;;4991215;28;28255;-81
2022/03/04 01:51:42;;;;;;;;;61.25;49.00;;;;;;;;4990720;28;29641;-80
2022/03/04 01:54:07;;;;;;;;;61.00;47.00;;;;;;;;4991010;28;28365;-80
2022/03/04 01:56:32;;;;;;;;;51.00;44.00;;;;;;;;4990673;28;28309;-80
2022/03/04 01:58:58;;;;;;;;;59.00;48.25;;;;;;;;4991236;28;28316;-80
2022/03/04 02:01:23;;;;;;;;;53.00;45.00;;;;;;;;4990359;28;29480;-81
2022/03/04 02:03:49;;;;;;;;;52.67;46.33;;;;;;;;4989336;28;28527;-80
2022/03/04 02:06:14;;;;;;;;;59.00;49.75;;;;;;;;4990654;28;28267;-80
2022/03/04 02:08:39;;;;;;;;;50.00;43.00;;;;;;;;4990702;28;28381;-81
2022/03/04 02:11:05;;;;;;;;;52.50;47.00;;;;;;;;4990590;28;28522;-81
2022/03/04 02:13:31;;;;;;;;;55.75;48.25;;;;;;;;4990877;28;28256;-80
2022/03/04 02:15:56;;;;;;;;;55.40;46.20;;;;;;;;4990138;28;28401;-80
2022/03/04 02:18:21;;;;;;;;;42.00;40.33;;;;;;;;4990762;28;28575;-80
2022/03/04 02:20:48;;;;;;;;;58.67;50.00;;;;;;;;4990330;28;28473;-80
2022/03/04 02:23:13;;;;;;;;;50.60;46.00;;;;;;;;4990116;28;28422;-80
2022/03/04 02:25:43;;;;;;;;;52.00;45.00;;;;;;;;4990801;28;28402;-80
2022/03/04 02:28:08;;;;;;;;;58.80;46.80;;;;;;;;4990268;28;28441;-80
2022/03/04 02:30:33;;;;;;;;;53.33;47.00;;;;;;;;4989190;28;28306;-80
2022/03/04 02:32:59;;;;;;;;;54.33;48.00;;;;;;;;4990114;28;28540;-80
2022/03/04 02:35:27;;;;;;;;;54.75;44.00;;;;;;;;4972558;28;28426;-80
2022/03/04 02:37:52;;;;;;;;;50.50;43.25;;;;;;;;4990572;28;28386;-80
2022/03/04 02:40:18;;;;;;;;;49.33;45.67;;;;;;;;4990190;28;28516;-80
2022/03/04 02:42:43;;;;;;;;;50.33;41.67;;;;;;;;4990267;28;28494;-80
2022/03/04 02:45:08;;;;;;;;;61.67;45.67;;;;;;;;4989971;28;28671;-80
2022/03/04 02:47:33;;;;;;;;;62.67;47.00;;;;;;;;4990251;28;28413;-80
2022/03/04 02:49:59;;;;;;;;;54.00;47.33;;;;;;;;4990443;28;28431;-80
2022/03/04 02:52:24;;;;;;;;;45.67;43.00;;;;;;;;4989814;28;28808;-80
2022/03/04 02:54:49;;;;;;;;;52.33;46.67;;;;;;;;4990619;28;28458;-80
2022/03/04 02:57:14;;;;;;;;;49.25;39.50;;;;;;;;4990146;28;28339;-80
2022/03/04 02:59:39;;;;;;;;;50.67;46.00;;;;;;;;4989987;28;28969;-80
2022/03/04 03:02:05;;;;;;;;;43.75;39.50;;;;;;;;4996016;28;28521;-80
2022/03/04 03:04:30;;;;;;;;;60.00;49.00;;;;;;;;5009618;28;28345;-80
2022/03/04 03:06:57;;;;;;;;;47.50;41.50;;;;;;;;5009428;28;28763;-80
2022/03/04 03:09:23;;;;;;;;;58.75;47.25;;;;;;;;5009413;28;28306;-80
2022/03/04 03:11:48;;;;;;;;;48.00;45.00;;;;;;;;5009682;28;28239;-81
2022/03/04 03:14:13;;;;;;;;;52.67;46.67;;;;;;;;5009184;28;28234;-80
2022/03/04 03:16:38;;;;;;;;;47.67;45.67;;;;;;;;4993028;28;28251;-80
2022/03/04 03:19:03;;;;;;;;;50.00;45.00;;;;;;;;4989999;28;28998;-81
2022/03/04 03:21:29;;;;;;;;;48.50;42.00;;;;;;;;4988969;28;28243;-81
2022/03/04 03:23:54;;;;;;;;;55.00;48.00;;;;;;;;4989582;28;28360;-80
2022/03/04 03:26:19;;;;;;;;;57.50;47.00;;;;;;;;4989634;28;28263;-80
2022/03/04 03:28:44;;;;;;;;;51.67;46.00;;;;;;;;4989504;28;28403;-81
2022/03/04 03:31:10;;;;;;;;;60.75;50.75;;;;;;;;4989441;28;28360;-81
2022/03/04 03:33:37;;;;;;;;;50.33;44.33;;;;;;;;4989805;28;28236;-81
2022/03/04 03:36:02;;;;;;;;;58.50;50.50;;;;;;;;4989548;28;28497;-81
2022/03/04 03:38:28;;;;;;;;;45.40;43.00;;;;;;;;4989342;28;29155;-81
2022/03/04 03:40:53;;;;;;;;;56.00;47.75;;;;;;;;4999103;28;28515;-81
2022/03/04 03:43:18;;;;;;;;;46.67;43.00;;;;;;;;4989650;28;28705;-81
2022/03/04 03:45:44;;;;;;;;;54.50;46.50;;;;;;;;5004984;28;28926;-81
2022/03/04 03:48:10;;;;;;;;;53.75;46.75;;;;;;;;4989000;28;28427;-81
2022/03/04 03:50:36;;;;;;;;;59.25;48.75;;;;;;;;4989127;28;28514;-81
2022/03/04 03:53:01;;;;;;;;;50.80;47.20;;;;;;;;4989091;28;28426;-81
2022/03/04 03:55:26;;;;;;;;;53.67;46.67;;;;;;;;4990975;28;28512;-81
2022/03/04 03:57:51;;;;;;;;;62.67;49.67;;;;;;;;4989085;28;28380;-81
2022/03/04 04:00:16;;;;;;;;;45.25;42.50;;;;;;;;4989181;28;28461;-81
2022/03/04 04:02:42;;;;;;;;;49.00;45.50;;;;;;;;4989361;28;28354;-81
2022/03/04 04:05:09;;;;;;;;;59.00;48.00;;;;;;;;4988754;28;28652;-80
2022/03/04 04:07:35;;;;;;;;;54.50;46.75;;;;;;;;4988556;28;29205;-81
2022/03/04 04:10:00;;;;;;;;;65.00;52.00;;;;;;;;4988814;28;28326;-80
2022/03/04 04:12:25;;;;;;;;;51.75;47.75;;;;;;;;4989228;28;28252;-81
2022/03/04 04:14:50;;;;;;;;;49.67;45.33;;;;;;;;5006979;28;28309;-81
2022/03/04 04:17:15;;;;;;;;;53.67;45.00;;;;;;;;4989077;28;28316;-80
2022/03/04 04:19:41;;;;;;;;;66.25;50.50;;;;;;;;4988632;28;28311;-81
2022/03/04 04:22:06;;;;;;;;;61.00;49.00;;;;;;;;4989053;28;28234;-81
2022/03/04 04:24:31;;;;;;;;;58.67;47.00;;;;;;;;4989037;28;28608;-81
2022/03/04 04:26:56;;;;;;;;;52.75;46.75;;;;;;;;4988641;28;28358;-81
2022/03/04 04:29:22;;;;;;;;;49.33;44.33;;;;;;;;4989056;28;28366;-81
2022/03/04 04:31:47;;;;;;;;;53.33;48.33;;;;;;;;4988724;28;28375;-81
2022/03/04 04:34:12;;;;;;;;;57.67;47.00;;;;;;;;4988109;28;28610;-81
2022/03/04 04:36:37;;;;;;;;;51.75;46.50;;;;;;;;4991940;28;28600;-81
2022/03/04 04:39:03;;;;;;;;;55.33;46.00;;;;;;;;4999088;28;28729;-81
2022/03/04 04:41:28;;;;;;;;;46.75;44.50;;;;;;;;4988659;28;28425;-81
2022/03/04 04:43:54;;;;;;;;;61.75;49.50;;;;;;;;4988415;28;28583;-81
2022/03/04 04:46:19;;;;;;;;;60.33;50.00;;;;;;;;4988252;28;29355;-80
2022/03/04 04:48:44;;;;;;;;;53.00;47.00;;;;;;;;4988493;28;28808;-81
2022/03/04 04:51:09;;;;;;;;;55.67;47.00;;;;;;;;4988429;28;28847;-81
2022/03/04 04:53:35;;;;;;;;;66.50;52.00;;;;;;;;4990477;28;28369;-81
2022/03/04 04:56:01;;;;;;;;;54.50;48.25;;;;;;;;4991737;28;28395;-81
2022/03/04 04:58:26;;;;;;;;;54.80;48.80;;;;;;;;4991646;28;28286;-81
2022/03/04 05:00:54;;;;;;;;;52.67;46.00;;;;;;;;4988789;28;28488;-80
2022/03/04 05:03:23;;;;;;;;;54.25;48.00;;;;;;;;4977276;28;28851;-80
2022/03/04 05:05:48;;;;;;;;;58.50;49.75;;;;;;;;4991883;28;29223;-81
2022/03/04 05:08:14;;;;;;;;;52.50;48.00;;;;;;;;4991447;28;28711;-81
2022/03/04 05:10:39;;;;;;;;;54.50;49.25;;;;;;;;4991449;28;28376;-81
2022/03/04 05:13:04;;;;;;;;;58.50;50.00;;;;;;;;4992225;28;28492;-81
2022/03/04 05:15:30;;;;;;;;;55.67;47.67;;;;;;;;4990763;28;29599;-81
2022/03/04 05:17:55;;;;;;;;;65.33;51.67;;;;;;;;4996731;28;28567;-81
2022/03/04 05:20:20;;;;;;;;;62.00;53.00;;;;;;;;4992031;28;28488;-81
2022/03/04 05:22:45;;;;;;;;;60.75;50.00;;;;;;;;4991696;28;28423;-81
2022/03/04 05:25:11;;;;;;;;;68.00;52.00;;;;;;;;4990797;28;28433;-81
2022/03/04 05:27:36;;;;;;;;;63.25;52.00;;;;;;;;4991294;28;28417;-81
2022/03/04 05:30:02;;;;;;;;;59.50;48.50;;;;;;;;4990673;28;28284;-81
2022/03/04 05:32:27;;;;;;;;;65.00;52.00;;;;;;;;4986368;28;28313;-81
2022/03/04 05:34:52;;;;;;;;;61.67;51.33;;;;;;;;4991484;28;29242;-81
2022/03/04 05:37:17;;;;;;;;;68.75;52.00;;;;;;;;4991451;28;28314;-81
2022/03/04 05:39:43;;;;;;;;;59.00;48.33;;;;;;;;5005980;28;28567;-81
2022/03/04 05:42:08;;;;;;;;;63.00;52.00;;;;;;;;4990947;28;28548;-81
2022/03/04 05:44:33;;;;;;;;;57.75;50.00;;;;;;;;4993306;28;29562;-81
2022/03/04 05:46:58;;;;;;;;;62.33;50.67;;;;;;;;4996668;28;28376;-81
2022/03/04 05:49:24;;;;;;;;;62.33;52.00;;;;;;;;4991269;28;28739;-81
2022/03/04 05:51:49;;;;;;;;;62.75;51.75;;;;;;;;4990614;28;28516;-81
2022/03/04 05:54:14;;;;;;;;;64.00;52.00;;;;;;;;4993931;28;29337;-81
2022/03/04 05:56:39;;;;;;;;;61.25;51.00;;;;;;;;5003996;28;28247;-81
2022/03/04 05:59:05;;;;;;;;;61.25;53.50;;;;;;;;4990445;28;28413;-81
2022/03/04 06:01:30;;;;;;;;;61.33;49.67;;;;;;;;4990101;28;28435;-81
2022/03/04 06:03:55;;;;;;;;;68.00;55.00;;;;;;;;4990903;28;28559;-80
2022/03/04 06:06:20;;;;;;;;;55.75;48.75;;;;;;;;4990973;28;28425;-82
2022/03/04 06:08:46;;;;;;;;;60.33;50.67;;;;;;;;4991009;28;28314;-80
2022/03/04 06:11:11;;;;;;;;;56.50;50.75;;;;;;;;4994102;28;28860;-80
2022/03/04 06:13:37;;;;;;;;;65.33;53.00;;;;;;;;4990501;28;28468;-80
2022/03/04 06:16:03;;;;;;;;;68.50;54.75;;;;;;;;4981167;28;27837;-82
2022/03/04 06:18:28;;;;;;;;;70.25;57.50;;;;;;;;5001489;28;28371;-81
2022/03/04 06:20:53;;;;;;;;;67.00;56.50;;;;;;;;5001873;28;28409;-81
2022/03/04 06:23:18;;;;;;;;;66.50;54.75;;;;;;;;4993413;28;28556;-81
2022/03/04 06:25:44;;;;;;;;;67.00;55.50;;;;;;;;4990319;28;28358;-86
2022/03/04 06:28:09;;;;;;;;;73.67;57.67;;;;;;;;4990057;28;28675;-84
2022/03/04 06:30:38;;;;;;;;;66.50;55.75;;;;;;;;5001452;28;29053;-83
2022/03/04 06:35:48;;;;;;;;;72.00;60.00;;;;;;;;4989659;28;27932;-79
2022/03/04 06:38:14;;;;;;;;;69.25;54.00;;;;;;;;4990050;28;28329;-80
2022/03/04 06:40:39;;;;;;;;;70.67;57.00;;;;;;;;4999724;28;28545;-80
2022/03/04 06:43:05;;;;;;;;;69.00;56.00;;;;;;;;5009816;28;28536;-80
2022/03/04 06:45:31;;;;;;;;;69.50;58.00;;;;;;;;4992367;28;28404;-80
2022/03/04 06:47:56;;;;;;;;;65.80;55.00;;;;;;;;4990148;28;28239;-80
2022/03/04 06:50:21;;;;;;;;;70.50;56.00;;;;;;;;4989502;28;28548;-79
2022/03/04 06:52:46;;;;;;;;;68.75;54.00;;;;;;;;4989640;28;28502;-80
2022/03/04 06:55:12;;;;;;;;;69.50;57.00;;;;;;;;4989249;28;28856;-80
2022/03/04 06:57:39;;;;;;;;;65.00;54.00;;;;;;;;4989919;28;28445;-79
2022/03/04 07:00:07;;;;;;;;;74.25;57.00;;;;;;;;4989205;28;28481;-79
2022/03/04 07:02:32;;;;;;;;;68.75;57.50;;;;;;;;4989295;28;28425;-79
2022/03/04 07:04:57;;;;;;;;;65.67;55.67;;;;;;;;4989838;28;28354;-79
2022/03/04 07:07:23;;;;;;;;;70.33;57.33;;;;;;;;5002091;28;28385;-79
2022/03/04 07:09:48;;;;;;;;;69.00;57.67;;;;;;;;4989230;28;28310;-79
2022/03/04 07:12:13;;;;;;;;;64.50;54.00;;;;;;;;4989415;28;28300;-79
2022/03/04 07:14:38;;;;;;;;;70.25;56.00;;;;;;;;4988932;28;28366;-79
2022/03/04 07:17:04;;;;;;;;;67.75;55.00;;;;;;;;4989037;28;28398;-79
2022/03/04 07:19:29;;;;;;;;;65.50;55.75;;;;;;;;4989818;28;28358;-79
2022/03/04 07:21:54;;;;;;;;;65.00;53.33;;;;;;;;4989253;28;28428;-81
2022/03/04 07:24:19;;;;;;;;;66.00;52.75;;;;;;;;4989111;28;28343;-79
2022/03/04 07:26:45;;;;;;;;;71.00;56.00;;;;;;;;4998267;28;28473;-79
2022/03/04 07:29:10;;;;;;;;;66.67;52.67;;;;;;;;5009533;28;28259;-81
2022/03/04 07:31:35;;;;;;;;;63.25;52.75;;;;;;;;5008737;28;28433;-79
2022/03/04 07:34:00;;;;;;;;;59.75;49.50;;;;;;;;4992607;28;28708;-79
2022/03/04 07:36:25;;;;;;;;;67.33;56.67;;;;;;;;4988902;28;28393;-79
2022/03/04 07:38:51;;;;;;;;;65.00;55.00;;;;;;;;4989260;28;28422;-79
2022/03/04 07:41:16;;;;;;;;;69.00;55.00;;;;;;;;4988897;28;29327;-80
2022/03/04 07:43:41;;;;;;;;;66.50;55.00;;;;;;;;4989349;28;28611;-80
2022/03/04 07:46:07;;;;;;;;;70.00;57.33;;;;;;;;4989037;28;28483;-80
2022/03/04 07:48:32;;;;;;;;;61.50;50.00;;;;;;;;4988844;28;28552;-80
2022/03/04 07:50:57;;;;;;;;;68.33;54.00;;;;;;;;4988716;28;29809;-83
2022/03/04 07:53:22;;;;;;;;;63.00;51.00;;;;;;;;4988916;28;28417;-83
2022/03/04 07:55:47;;;;;;;;;65.75;53.25;;;;;;;;4988470;28;28448;-81
2022/03/04 07:58:13;;;;;;;;;66.33;50.67;;;;;;;;4997116;28;28497;-81
2022/03/04 08:00:38;;;;;;;;;64.00;50.33;;;;;;;;4988462;28;28409;-81
2022/03/04 08:03:03;;;;;;;;;61.50;50.25;;;;;;;;4988891;28;28870;-82
2022/03/04 08:05:28;;;;;;;;;57.50;47.50;;;;;;;;4987837;28;28943;-82
2022/03/04 08:07:54;;;;;;;;;66.67;53.00;;;;;;;;4988467;28;28466;-82
2022/03/04 08:10:20;;;;;;;;;63.00;51.00;;;;;;;;4988286;28;28592;-82
2022/03/04 08:12:45;;;;;;;;;60.00;46.75;;;;;;;;4987414;28;28303;-80
2022/03/04 08:15:11;;;;;;;;;63.00;52.33;;;;;;;;4988570;28;28393;-81
2022/03/04 08:17:37;;;;;;;;;65.00;50.00;;;;;;;;4988498;28;28481;-80
2022/03/04 08:20:02;;;;;;;;;65.75;53.50;;;;;;;;4987918;28;28408;-81
2022/03/04 08:22:28;;;;;;;;;61.00;49.67;;;;;;;;4987944;28;28542;-82
2022/03/04 08:24:53;;;;;;;;;47.33;44.00;;;;;;;;4987676;28;28346;-83
2022/03/04 08:27:18;;;;;;;;;63.00;54.00;;;;;;;;5004790;28;28429;-83
2022/03/04 08:29:44;;;;;;;;;53.50;46.75;;;;;;;;5005243;28;29382;-84
2022/03/04 08:32:09;;;;;;;;;63.33;51.33;;;;;;;;4993921;28;28291;-83
2022/03/04 08:34:34;;;;;;;;;64.75;49.25;;;;;;;;5007618;28;28803;-84
2022/03/04 08:37:00;;;;;;;;;56.75;48.00;;;;;;;;4999700;28;28413;-85
2022/03/04 08:39:25;;;;;;;;;57.33;46.33;;;;;;;;4996898;28;28494;-84
2022/03/04 08:41:50;;;;;;;;;54.33;46.33;;;;;;;;5010996;28;28319;-84
2022/03/04 08:44:15;;;;;;;;;66.33;49.67;;;;;;;;4993838;28;28248;-84
2022/03/04 08:46:41;;;;;;;;;62.50;50.50;;;;;;;;4999585;28;28398;-85
2022/03/04 08:49:07;;;;;;;;;53.75;45.50;;;;;;;;5010925;28;28715;-84
2022/03/04 08:51:32;;;;;;;;;52.40;45.20;;;;;;;;5011557;28;28522;-83
2022/03/04 08:53:58;;;;;;;;;55.00;48.00;;;;;;;;5011865;28;28419;-86
2022/03/04 08:56:23;;;;;;;;;52.50;45.25;;;;;;;;5009185;28;28567;-83
2022/03/04 08:58:49;;;;;;;;;59.50;50.00;;;;;;;;5010818;28;28374;-81
2022/03/04 09:01:14;;;;;;;;;56.00;46.00;;;;;;;;5010682;28;28418;-81
2022/03/04 09:03:40;;;;;;;;;59.25;47.50;;;;;;;;5010138;28;28363;-81
2022/03/04 09:06:05;;;;;;;;;51.67;46.00;;;;;;;;5011498;28;28337;-82
2022/03/04 09:08:30;;;;;;;;;58.25;47.75;;;;;;;;5011015;28;29567;-83
2022/03/04 09:10:55;;;;;;;;;55.00;46.75;;;;;;;;5003537;28;28354;-83
2022/03/04 09:13:21;;;;;;;;;55.67;47.33;;;;;;;;4991536;28;28742;-81
2022/03/04 09:15:46;;;;;;;;;56.00;44.33;;;;;;;;4991671;28;28469;-80
2022/03/04 09:18:11;;;;;;;;;53.67;45.67;;;;;;;;4991501;28;28409;-80
2022/03/04 09:20:37;;;;;;;;;54.00;41.25;;;;;;;;4991226;28;28249;-80
2022/03/04 09:23:02;;;;;;;;;48.33;39.67;;;;;;;;4991604;28;28279;-81
2022/03/04 09:25:27;;;;;;;;;49.67;42.00;;;;;;;;4991746;28;28470;-81
2022/03/04 09:27:53;;;;;;;;;56.50;43.25;;;;;;;;4991203;28;29241;-82
2022/03/04 09:30:18;;;;;;;;;53.00;43.25;;;;;;;;4991383;28;28395;-81
2022/03/04 09:32:44;;;;;;;;;60.75;46.75;;;;;;;;4991008;28;28489;-81
2022/03/04 09:35:09;;;;;;;;;52.00;44.00;;;;;;;;4991334;28;28489;-81
2022/03/04 09:37:35;;;;;;;;;49.25;42.75;;;;;;;;4991231;28;28430;-81
2022/03/04 09:40:00;;;;;;;;;56.67;44.33;;;;;;;;4991019;28;28390;-81
2022/03/04 09:42:26;;;;;;;;;54.67;44.00;;;;;;;;4991177;28;28339;-79
2022/03/04 09:44:51;;;;;;;;;54.50;44.00;;;;;;;;4991271;28;28336;-81
2022/03/04 09:47:21;;;;;;;;;43.00;42.00;;;;;;;;4990952;28;29847;-81
2022/03/04 09:49:46;;;;;;;;;53.60;45.00;;;;;;;;4990692;28;28715;-81
2022/03/04 09:52:11;;;;;;;;;56.00;41.50;;;;;;;;4990729;28;28307;-81
2022/03/04 09:54:37;;;;;;;;;53.25;44.50;;;;;;;;4990964;28;28426;-81
2022/03/04 09:57:02;;;;;;;;;50.00;42.00;;;;;;;;4989717;28;29417;-81
2022/03/04 09:59:28;;;;;;;;;47.25;42.00;;;;;;;;4990797;28;28331;-82
2022/03/04 10:01:53;;;;;;;;;49.75;43.00;;;;;;;;4991136;28;28384;-81
2022/03/04 10:04:18;;;;;;;;;54.00;44.75;;;;;;;;4991074;28;28394;-81
2022/03/04 10:06:48;;;;;;;;;50.00;43.00;;;;;;;;4989069;28;28432;-81
2022/03/04 10:09:31;;;;;;;;;60.00;48.00;;;;;;;;4990595;28;28338;-81
2022/03/04 10:12:01;;;;;;;;;58.80;48.80;;;;;;;;4990519;28;28558;-81
2022/03/04 10:14:26;;;;;;;;;53.60;45.80;;;;;;;;4990618;28;28458;-82
2022/03/04 10:16:56;;;;;;;;;57.00;47.00;;;;;;;;4990808;28;28532;-82
2022/03/04 10:19:21;;;;;;;;;59.60;48.00;;;;;;;;4990685;28;28370;-82
2022/03/04 10:21:46;;;;;;;;;47.50;42.25;;;;;;;;4990387;28;28801;-82
2022/03/04 10:24:12;;;;;;;;;54.33;44.33;;;;;;;;4990475;28;28412;-82
2022/03/04 10:26:37;;;;;;;;;50.75;42.75;;;;;;;;4990657;28;28528;-83
2022/03/04 10:29:22;;;;;;;;;43.50;39.00;;;;;;;;4989726;28;28667;-82
2022/03/04 10:32:19;;;;;;;;;44.75;40.75;;;;;;;;4990060;28;28453;-82
2022/03/04 10:34:51;;;;;;;;;50.00;42.00;;;;;;;;4967545;28;28539;-82
2022/03/04 10:37:17;;;;;;;;;46.60;39.80;;;;;;;;4968040;28;28382;-83
2022/03/04 10:39:56;;;;;;;;;45.00;41.75;;;;;;;;4968755;28;28559;-83
2022/03/04 10:42:37;;;;;;;;;45.60;40.00;;;;;;;;4967361;28;28312;-83
2022/03/04 10:45:07;;;;;;;;;41.40;38.20;;;;;;;;4968542;28;28970;-81
2022/03/04 10:47:46;;;;;;;;;50.75;40.75;;;;;;;;4968143;28;28483;-81
2022/03/04 10:50:12;;;;;;;;;52.75;41.25;;;;;;;;4967676;28;28541;-82
2022/03/04 10:52:51;;;;;;;;;49.20;41.20;;;;;;;;4968332;28;28259;-82
2022/03/04 10:55:26;;;;;;;;;49.75;39.50;;;;;;;;4958572;28;28438;-82
2022/03/04 10:57:51;;;;;;;;;43.25;38.50;;;;;;;;4948775;28;28644;-82
2022/03/04 11:00:24;;;;;;;;;44.50;40.50;;;;;;;;4958601;28;28755;-82
2022/03/04 11:02:49;;;;;;;;;49.00;42.40;;;;;;;;4967787;28;28469;-82
2022/03/04 11:05:14;;;;;;;;;44.00;37.00;;;;;;;;4964958;28;28526;-83
2022/03/04 11:07:42;;;;;;;;;41.00;37.00;;;;;;;;4968187;28;28799;-81
2022/03/04 11:10:08;;;;;;;;;46.00;42.50;;;;;;;;4976402;28;28764;-81
2022/03/04 11:12:33;;;;;;;;;49.50;40.00;;;;;;;;4989327;28;28955;-81
2022/03/04 11:14:59;;;;;;;;;42.50;38.00;;;;;;;;4992210;28;28457;-81
2022/03/04 11:17:25;;;;;;;;;47.25;41.25;;;;;;;;4989748;28;28320;-81
2022/03/04 11:19:50;;;;;;;;;51.75;42.00;;;;;;;;4989815;28;28244;-83
2022/03/04 11:22:16;;;;;;;;;43.75;37.50;;;;;;;;4989815;28;28458;-82
2022/03/04 11:24:41;;;;;;;;;48.25;40.25;;;;;;;;4993409;28;28331;-81
2022/03/04 11:27:09;;;;;;;;;45.00;38.00;;;;;;;;4988564;28;28838;-81
2022/03/04 11:29:34;;;;;;;;;42.00;37.75;;;;;;;;4989341;28;28445;-81
2022/03/04 11:32:01;;;;;;;;;51.00;42.50;;;;;;;;4989222;28;28230;-81
2022/03/04 11:34:39;;;;;;;;;46.50;41.50;;;;;;;;4988624;28;30039;-81
2022/03/04 11:37:14;;;;;;;;;51.00;44.00;;;;;;;;4989364;28;29483;-81
2022/03/04 11:39:57;;;;;;;;;46.60;40.20;;;;;;;;4989651;28;28367;-82
2022/03/04 11:42:26;;;;;;;;;43.00;37.20;;;;;;;;4989674;28;28311;-81
2022/03/04 11:44:55;;;;;;;;;49.00;41.20;;;;;;;;4989427;28;28905;-81
2022/03/04 11:47:20;;;;;;;;;42.20;37.80;;;;;;;;4989065;28;28874;-81
2022/03/04 11:49:49;;;;;;;;;48.00;40.00;;;;;;;;4989817;28;27959;-82
2022/03/04 11:52:21;;;;;;;;;40.00;37.00;;;;;;;;4995780;28;28297;-79
2022/03/04 11:54:49;;;;;;;;;44.00;37.00;;;;;;;;4989059;28;28461;-81
2022/03/04 11:57:15;;;;;;;;;52.67;40.00;;;;;;;;4988997;28;28556;-82
2022/03/04 11:59:48;;;;;;;;;48.00;39.25;;;;;;;;4988955;28;28445;-83
2022/03/04 12:02:34;;;;;;;;;56.40;47.00;;;;;;;;4988815;28;28497;-80
2022/03/04 12:05:11;;;;;;;;;51.50;39.50;;;;;;;;4982767;28;28706;-81
2022/03/04 12:07:37;;;;;;;;;50.50;44.00;;;;;;;;4989059;28;28738;-83
2022/03/04 12:10:03;;;;;;;;;54.00;43.00;;;;;;;;4988560;28;28442;-84
2022/03/04 12:12:28;;;;;;;;;52.25;44.50;;;;;;;;4988891;28;28483;-83
2022/03/04 12:14:53;;;;;;;;;52.75;44.25;;;;;;;;4989409;28;28328;-84
2022/03/04 12:17:19;;;;;;;;;51.00;42.33;;;;;;;;4988523;28;28505;-82
2022/03/04 12:19:45;;;;;;;;;53.50;43.50;;;;;;;;4989118;28;28476;-83
2022/03/04 12:22:14;;;;;;;;;54.25;45.00;;;;;;;;4988711;28;28489;-83
2022/03/04 12:24:50;;;;;;;;;49.00;40.75;;;;;;;;4987963;28;28732;-83
2022/03/04 12:27:35;;;;;;;;;55.00;46.25;;;;;;;;4987339;28;28777;-86
2022/03/04 12:30:13;;;;;;;;;49.75;41.50;;;;;;;;5003395;28;28266;-87
2022/03/04 12:32:45;;;;;;;;;49.40;41.60;;;;;;;;4985997;28;28534;-84
2022/03/04 12:35:10;;;;;;;;;48.25;41.00;;;;;;;;4985199;28;28651;-84
2022/03/04 12:37:35;;;;;;;;;56.67;43.33;;;;;;;;4988332;28;28813;-84
2022/03/04 12:40:02;;;;;;;;;51.67;43.33;;;;;;;;4993186;28;28259;-85
2022/03/04 12:42:27;;;;;;;;;49.67;41.00;;;;;;;;4994007;28;28335;-85
2022/03/04 12:44:54;;;;;;;;;54.50;44.00;;;;;;;;4988495;28;28370;-83
2022/03/04 12:47:20;;;;;;;;;48.00;41.25;;;;;;;;4987997;28;28600;-81
2022/03/04 12:49:46;;;;;;;;;51.25;42.00;;;;;;;;4988526;28;28472;-81
2022/03/04 12:52:11;;;;;;;;;40.40;37.40;;;;;;;;4988398;28;28310;-81
2022/03/04 12:54:37;;;;;;;;;43.67;40.00;;;;;;;;4988604;28;28418;-81
2022/03/04 12:57:04;;;;;;;;;46.75;39.00;;;;;;;;4987741;28;28485;-81
2022/03/04 12:59:30;;;;;;;;;53.60;42.00;;;;;;;;4988220;28;28522;-82
2022/03/04 13:01:56;;;;;;;;;46.60;38.80;;;;;;;;4987395;28;28607;-81
2022/03/04 13:04:22;;;;;;;;;50.50;42.25;;;;;;;;5008496;28;28275;-82
2022/03/04 13:06:57;;;;;;;;;42.25;36.50;;;;;;;;4998101;28;28799;-84
